sensor_id;sensor_type;location;lat;lon;timestamp;temperature;humidity
5415;DHT22;2730;51.512;7.504;2023-06-19T00:01:03;24.20;1.00
5415;DHT22;2730;51.512;7.504;2023-06-19T00:03:29;24.10;1.00
5415;DHT22;2730;51.512;7.504;2023-06-19T00:05:56;24.10;1.00
5415;DHT22;2730;51.512;7.504;2023-06-19T00:08:23;24.00;1.00
5415;DHT22;2730;51.512;7.504;2023-06-19T00:10:50;24.00;1.00
5415;DHT22;2730;51.512;7.504;2023-06-19T00:13:17;23.90;1.00
5415;DHT22;2730;51.512;7.504;2023-06-19T00:15:45;23.90;1.00
5415;DHT22;2730;51.512;7.504;2023-06-19T00:18:12;23.90;1.00
5415;DHT22;2730;51.512;7.504;2023-06-19T00:20:41;23.80;1.00
5415;DHT22;2730;51.512;7.504;2023-06-19T00:23:11;23.80;1.00
5415;DHT22;2730;51.512;7.504;2023-06-19T00:25:40;23.90;1.00
5415;DHT22;2730;51.512;7.504;2023-06-19T00:28:07;23.90;1.00
5415;DHT22;2730;51.512;7.504;2023-06-19T00:30:37;23.80;1.00
5415;DHT22;2730;51.512;7.504;2023-06-19T00:33:14;23.80;1.00
5415;DHT22;2730;51.512;7.504;2023-06-19T00:35:40;23.70;1.00
5415;DHT22;2730;51.512;7.504;2023-06-19T00:38:07;23.60;1.00
5415;DHT22;2730;51.512;7.504;2023-06-19T00:40:34;23.60;1.00
5415;DHT22;2730;51.512;7.504;2023-06-19T00:43:02;23.50;1.00
5415;DHT22;2730;51.512;7.504;2023-06-19T00:45:29;23.50;1.00
5415;DHT22;2730;51.512;7.504;2023-06-19T00:47:57;23.40;1.00
5415;DHT22;2730;51.512;7.504;2023-06-19T00:50:26;23.40;1.00
5415;DHT22;2730;51.512;7.504;2023-06-19T00:52:54;23.30;1.00
5415;DHT22;2730;51.512;7.504;2023-06-19T00:55:21;23.20;1.00
5415;DHT22;2730;51.512;7.504;2023-06-19T00:57:49;23.10;1.00
5415;DHT22;2730;51.512;7.504;2023-06-19T01:00:16;23.10;1.00
5415;DHT22;2730;51.512;7.504;2023-06-19T01:02:43;23.10;1.00
5415;DHT22;2730;51.512;7.504;2023-06-19T01:05:10;23.00;1.00
5415;DHT22;2730;51.512;7.504;2023-06-19T01:07:44;23.00;1.00
5415;DHT22;2730;51.512;7.504;2023-06-19T01:10:15;23.00;1.00
5415;DHT22;2730;51.512;7.504;2023-06-19T01:12:47;22.90;23.10
5415;DHT22;2730;51.512;7.504;2023-06-19T01:15:18;22.80;21.70
5415;DHT22;2730;51.512;7.504;2023-06-19T01:17:45;22.70;50.50
5415;DHT22;2730;51.512;7.504;2023-06-19T01:20:13;22.60;99.90
5415;DHT22;2730;51.512;7.504;2023-06-19T01:22:42;22.50;99.90
5415;DHT22;2730;51.512;7.504;2023-06-19T01:25:09;22.50;99.90
5415;DHT22;2730;51.512;7.504;2023-06-19T01:27:36;22.50;99.90
5415;DHT22;2730;51.512;7.504;2023-06-19T01:30:05;22.60;99.90
5415;DHT22;2730;51.512;7.504;2023-06-19T01:32:40;22.60;99.90
5415;DHT22;2730;51.512;7.504;2023-06-19T01:35:09;22.60;99.90
5415;DHT22;2730;51.512;7.504;2023-06-19T01:37:37;22.60;99.90
5415;DHT22;2730;51.512;7.504;2023-06-19T01:40:08;22.70;99.90
5415;DHT22;2730;51.512;7.504;2023-06-19T01:42:37;22.80;99.90
5415;DHT22;2730;51.512;7.504;2023-06-19T01:45:07;22.80;99.90
5415;DHT22;2730;51.512;7.504;2023-06-19T01:47:34;22.80;99.90
5415;DHT22;2730;51.512;7.504;2023-06-19T01:50:01;22.80;99.90
5415;DHT22;2730;51.512;7.504;2023-06-19T01:52:28;22.80;99.90
5415;DHT22;2730;51.512;7.504;2023-06-19T01:54:55;22.70;99.90
5415;DHT22;2730;51.512;7.504;2023-06-19T01:57:23;22.80;99.90
5415;DHT22;2730;51.512;7.504;2023-06-19T01:59:50;22.80;99.90
5415;DHT22;2730;51.512;7.504;2023-06-19T02:02:16;22.70;99.90
5415;DHT22;2730;51.512;7.504;2023-06-19T02:04:43;22.70;99.90
5415;DHT22;2730;51.512;7.504;2023-06-19T02:07:10;22.60;99.90
5415;DHT22;2730;51.512;7.504;2023-06-19T02:09:38;22.70;99.90
5415;DHT22;2730;51.512;7.504;2023-06-19T02:12:05;22.60;99.90
5415;DHT22;2730;51.512;7.504;2023-06-19T02:14:34;22.60;99.90
5415;DHT22;2730;51.512;7.504;2023-06-19T02:17:00;22.60;99.90
5415;DHT22;2730;51.512;7.504;2023-06-19T02:19:27;22.50;99.90
5415;DHT22;2730;51.512;7.504;2023-06-19T02:21:54;22.60;99.90
5415;DHT22;2730;51.512;7.504;2023-06-19T02:24:21;22.50;99.90
5415;DHT22;2730;51.512;7.504;2023-06-19T02:26:47;22.50;99.90
5415;DHT22;2730;51.512;7.504;2023-06-19T02:29:14;22.50;99.90
5415;DHT22;2730;51.512;7.504;2023-06-19T02:31:42;22.60;99.90
5415;DHT22;2730;51.512;7.504;2023-06-19T02:34:09;22.60;99.90
5415;DHT22;2730;51.512;7.504;2023-06-19T02:36:36;22.60;99.90
5415;DHT22;2730;51.512;7.504;2023-06-19T02:39:04;22.70;99.90
5415;DHT22;2730;51.512;7.504;2023-06-19T02:41:31;22.70;99.90
5415;DHT22;2730;51.512;7.504;2023-06-19T02:43:58;22.70;99.90
5415;DHT22;2730;51.512;7.504;2023-06-19T02:46:24;22.70;94.90
5415;DHT22;2730;51.512;7.504;2023-06-19T02:48:52;22.70;92.90
5415;DHT22;2730;51.512;7.504;2023-06-19T02:51:19;22.80;83.80
5415;DHT22;2730;51.512;7.504;2023-06-19T02:53:46;22.80;85.60
5415;DHT22;2730;51.512;7.504;2023-06-19T02:56:13;22.70;91.50
5415;DHT22;2730;51.512;7.504;2023-06-19T02:58:39;22.70;86.60
5415;DHT22;2730;51.512;7.504;2023-06-19T03:01:07;22.70;84.00
5415;DHT22;2730;51.512;7.504;2023-06-19T03:03:34;22.70;73.80
5415;DHT22;2730;51.512;7.504;2023-06-19T03:06:05;22.80;55.40
5415;DHT22;2730;51.512;7.504;2023-06-19T03:08:33;22.80;42.40
5415;DHT22;2730;51.512;7.504;2023-06-19T03:10:59;22.90;35.40
5415;DHT22;2730;51.512;7.504;2023-06-19T03:13:29;23.00;27.40
5415;DHT22;2730;51.512;7.504;2023-06-19T03:15:56;22.90;25.50
5415;DHT22;2730;51.512;7.504;2023-06-19T03:18:23;23.00;15.90
5415;DHT22;2730;51.512;7.504;2023-06-19T03:20:49;23.00;12.40
5415;DHT22;2730;51.512;7.504;2023-06-19T03:23:17;23.00;8.50
5415;DHT22;2730;51.512;7.504;2023-06-19T03:25:44;23.20;1.10
5415;DHT22;2730;51.512;7.504;2023-06-19T03:28:11;23.10;1.00
5415;DHT22;2730;51.512;7.504;2023-06-19T03:30:38;23.20;1.00
5415;DHT22;2730;51.512;7.504;2023-06-19T03:33:04;23.20;1.00
5415;DHT22;2730;51.512;7.504;2023-06-19T03:35:31;23.30;1.00
5415;DHT22;2730;51.512;7.504;2023-06-19T03:37:58;23.40;1.00
5415;DHT22;2730;51.512;7.504;2023-06-19T03:40:26;23.30;1.00
5415;DHT22;2730;51.512;7.504;2023-06-19T03:42:53;23.40;1.00
5415;DHT22;2730;51.512;7.504;2023-06-19T03:45:20;23.30;1.00
5415;DHT22;2730;51.512;7.504;2023-06-19T03:47:46;23.30;2.90
5415;DHT22;2730;51.512;7.504;2023-06-19T03:50:13;23.30;1.00
5415;DHT22;2730;51.512;7.504;2023-06-19T03:52:40;23.30;3.50
5415;DHT22;2730;51.512;7.504;2023-06-19T03:55:07;23.30;9.10
5415;DHT22;2730;51.512;7.504;2023-06-19T03:57:35;23.20;15.60
5415;DHT22;2730;51.512;7.504;2023-06-19T04:00:02;23.10;27.40
5415;DHT22;2730;51.512;7.504;2023-06-19T04:02:32;23.10;44.10
5415;DHT22;2730;51.512;7.504;2023-06-19T04:04:59;23.00;72.70
5415;DHT22;2730;51.512;7.504;2023-06-19T04:07:26;23.00;89.30
5415;DHT22;2730;51.512;7.504;2023-06-19T04:09:53;22.90;97.70
5415;DHT22;2730;51.512;7.504;2023-06-19T04:12:20;22.90;99.90
5415;DHT22;2730;51.512;7.504;2023-06-19T04:14:48;22.80;99.90
5415;DHT22;2730;51.512;7.504;2023-06-19T04:17:15;22.70;99.90
5415;DHT22;2730;51.512;7.504;2023-06-19T04:19:42;22.80;99.90
5415;DHT22;2730;51.512;7.504;2023-06-19T04:22:09;22.70;99.90
5415;DHT22;2730;51.512;7.504;2023-06-19T04:24:36;22.60;99.90
5415;DHT22;2730;51.512;7.504;2023-06-19T04:27:03;22.60;99.90
5415;DHT22;2730;51.512;7.504;2023-06-19T04:29:30;22.60;99.90
5415;DHT22;2730;51.512;7.504;2023-06-19T04:31:58;22.60;99.90
5415;DHT22;2730;51.512;7.504;2023-06-19T04:34:25;22.60;99.90
5415;DHT22;2730;51.512;7.504;2023-06-19T04:36:52;22.60;99.90
5415;DHT22;2730;51.512;7.504;2023-06-19T04:39:19;22.50;99.90
5415;DHT22;2730;51.512;7.504;2023-06-19T04:41:46;22.50;99.90
5415;DHT22;2730;51.512;7.504;2023-06-19T04:44:13;22.50;99.90
5415;DHT22;2730;51.512;7.504;2023-06-19T04:46:40;22.40;99.90
5415;DHT22;2730;51.512;7.504;2023-06-19T04:49:08;22.40;99.90
5415;DHT22;2730;51.512;7.504;2023-06-19T04:51:35;22.40;99.90
5415;DHT22;2730;51.512;7.504;2023-06-19T04:54:02;22.50;99.90
5415;DHT22;2730;51.512;7.504;2023-06-19T04:56:29;22.50;99.90
5415;DHT22;2730;51.512;7.504;2023-06-19T04:58:56;22.40;99.90
5415;DHT22;2730;51.512;7.504;2023-06-19T05:01:25;22.30;99.90
5415;DHT22;2730;51.512;7.504;2023-06-19T05:03:55;22.40;99.90
5415;DHT22;2730;51.512;7.504;2023-06-19T05:06:23;22.40;99.90
5415;DHT22;2730;51.512;7.504;2023-06-19T05:08:50;22.40;99.90
5415;DHT22;2730;51.512;7.504;2023-06-19T05:11:18;22.30;1.00
5415;DHT22;2730;51.512;7.504;2023-06-19T05:13:44;22.40;1.00
5415;DHT22;2730;51.512;7.504;2023-06-19T05:16:11;22.40;1.00
5415;DHT22;2730;51.512;7.504;2023-06-19T05:18:41;22.50;1.00
5415;DHT22;2730;51.512;7.504;2023-06-19T05:21:08;22.60;1.00
5415;DHT22;2730;51.512;7.504;2023-06-19T05:23:36;22.60;99.90
5415;DHT22;2730;51.512;7.504;2023-06-19T05:26:03;22.90;99.90
5415;DHT22;2730;51.512;7.504;2023-06-19T05:28:30;22.70;99.90
5415;DHT22;2730;51.512;7.504;2023-06-19T05:30:57;22.80;99.90
5415;DHT22;2730;51.512;7.504;2023-06-19T05:33:24;22.80;99.90
5415;DHT22;2730;51.512;7.504;2023-06-19T05:35:51;22.70;1.00
5415;DHT22;2730;51.512;7.504;2023-06-19T05:38:19;22.70;1.00
5415;DHT22;2730;51.512;7.504;2023-06-19T05:40:47;22.60;1.00
5415;DHT22;2730;51.512;7.504;2023-06-19T05:43:14;22.60;1.00
5415;DHT22;2730;51.512;7.504;2023-06-19T05:45:41;22.60;1.00
5415;DHT22;2730;51.512;7.504;2023-06-19T05:48:07;22.70;1.00
5415;DHT22;2730;51.512;7.504;2023-06-19T05:50:34;22.60;1.00
5415;DHT22;2730;51.512;7.504;2023-06-19T05:53:01;22.60;1.00
5415;DHT22;2730;51.512;7.504;2023-06-19T05:55:28;22.60;1.00
5415;DHT22;2730;51.512;7.504;2023-06-19T05:57:57;22.30;1.00
5415;DHT22;2730;51.512;7.504;2023-06-19T06:00:23;22.30;1.00
5415;DHT22;2730;51.512;7.504;2023-06-19T06:02:50;22.40;1.00
5415;DHT22;2730;51.512;7.504;2023-06-19T06:05:17;22.70;1.00
5415;DHT22;2730;51.512;7.504;2023-06-19T06:07:46;23.60;99.90
5415;DHT22;2730;51.512;7.504;2023-06-19T06:10:12;24.90;99.90
5415;DHT22;2730;51.512;7.504;2023-06-19T06:12:39;26.10;99.90
5415;DHT22;2730;51.512;7.504;2023-06-19T06:15:08;26.40;99.90
5415;DHT22;2730;51.512;7.504;2023-06-19T06:17:35;25.80;99.90
5415;DHT22;2730;51.512;7.504;2023-06-19T06:20:02;25.90;99.90
5415;DHT22;2730;51.512;7.504;2023-06-19T06:22:32;26.60;97.60
5415;DHT22;2730;51.512;7.504;2023-06-19T06:24:58;27.40;60.30
5415;DHT22;2730;51.512;7.504;2023-06-19T06:27:25;27.80;22.80
5415;DHT22;2730;51.512;7.504;2023-06-19T06:29:52;27.60;12.90
5415;DHT22;2730;51.512;7.504;2023-06-19T06:32:20;27.60;3.40
5415;DHT22;2730;51.512;7.504;2023-06-19T06:34:47;27.70;1.00
5415;DHT22;2730;51.512;7.504;2023-06-19T06:37:14;28.00;1.00
5415;DHT22;2730;51.512;7.504;2023-06-19T06:39:42;28.10;1.00
5415;DHT22;2730;51.512;7.504;2023-06-19T06:42:09;27.90;1.00
5415;DHT22;2730;51.512;7.504;2023-06-19T06:44:36;27.60;1.00
5415;DHT22;2730;51.512;7.504;2023-06-19T06:47:03;27.00;1.00
5415;DHT22;2730;51.512;7.504;2023-06-19T06:49:31;26.70;1.00
5415;DHT22;2730;51.512;7.504;2023-06-19T06:51:58;27.00;1.00
5415;DHT22;2730;51.512;7.504;2023-06-19T06:54:26;27.50;1.00
5415;DHT22;2730;51.512;7.504;2023-06-19T06:56:52;27.60;1.00
5415;DHT22;2730;51.512;7.504;2023-06-19T06:59:21;27.40;1.00
5415;DHT22;2730;51.512;7.504;2023-06-19T07:01:48;26.70;1.00
5415;DHT22;2730;51.512;7.504;2023-06-19T07:04:15;26.30;1.00
5415;DHT22;2730;51.512;7.504;2023-06-19T07:06:43;26.40;1.00
5415;DHT22;2730;51.512;7.504;2023-06-19T07:09:10;26.60;1.00
5415;DHT22;2730;51.512;7.504;2023-06-19T07:11:36;26.40;1.00
5415;DHT22;2730;51.512;7.504;2023-06-19T07:14:03;26.70;1.00
5415;DHT22;2730;51.512;7.504;2023-06-19T07:16:30;26.50;1.00
5415;DHT22;2730;51.512;7.504;2023-06-19T07:18:57;27.20;1.00
5415;DHT22;2730;51.512;7.504;2023-06-19T07:21:24;27.90;1.00
5415;DHT22;2730;51.512;7.504;2023-06-19T07:23:52;27.80;1.00
5415;DHT22;2730;51.512;7.504;2023-06-19T07:26:18;27.80;1.00
5415;DHT22;2730;51.512;7.504;2023-06-19T07:28:45;27.90;1.00
5415;DHT22;2730;51.512;7.504;2023-06-19T07:31:12;27.60;1.00
5415;DHT22;2730;51.512;7.504;2023-06-19T07:33:39;27.40;1.00
5415;DHT22;2730;51.512;7.504;2023-06-19T07:36:06;26.90;1.00
5415;DHT22;2730;51.512;7.504;2023-06-19T07:38:33;26.60;1.00
5415;DHT22;2730;51.512;7.504;2023-06-19T07:41:01;26.20;1.00
5415;DHT22;2730;51.512;7.504;2023-06-19T07:43:28;25.90;1.00
5415;DHT22;2730;51.512;7.504;2023-06-19T07:45:55;25.60;1.00
5415;DHT22;2730;51.512;7.504;2023-06-19T07:48:22;25.00;26.90
5415;DHT22;2730;51.512;7.504;2023-06-19T07:50:49;24.60;87.40
5415;DHT22;2730;51.512;7.504;2023-06-19T07:53:15;24.30;99.90
5415;DHT22;2730;51.512;7.504;2023-06-19T07:55:42;24.10;99.90
5415;DHT22;2730;51.512;7.504;2023-06-19T07:58:10;23.80;99.90
5415;DHT22;2730;51.512;7.504;2023-06-19T08:00:37;23.80;99.90
5415;DHT22;2730;51.512;7.504;2023-06-19T08:03:04;23.70;99.90
5415;DHT22;2730;51.512;7.504;2023-06-19T08:05:31;23.90;99.90
5415;DHT22;2730;51.512;7.504;2023-06-19T08:07:59;24.10;99.90
5415;DHT22;2730;51.512;7.504;2023-06-19T08:10:26;24.00;99.90
5415;DHT22;2730;51.512;7.504;2023-06-19T08:12:53;24.00;99.90
5415;DHT22;2730;51.512;7.504;2023-06-19T08:15:21;24.10;99.90
5415;DHT22;2730;51.512;7.504;2023-06-19T08:17:48;24.30;99.90
5415;DHT22;2730;51.512;7.504;2023-06-19T08:20:15;24.30;99.90
5415;DHT22;2730;51.512;7.504;2023-06-19T08:22:42;24.30;99.90
5415;DHT22;2730;51.512;7.504;2023-06-19T08:25:09;24.10;99.90
5415;DHT22;2730;51.512;7.504;2023-06-19T08:27:35;24.10;99.90
5415;DHT22;2730;51.512;7.504;2023-06-19T08:30:03;24.00;99.90
5415;DHT22;2730;51.512;7.504;2023-06-19T08:32:31;23.70;99.90
5415;DHT22;2730;51.512;7.504;2023-06-19T08:34:58;23.70;99.90
5415;DHT22;2730;51.512;7.504;2023-06-19T08:37:25;23.70;99.90
5415;DHT22;2730;51.512;7.504;2023-06-19T08:39:52;23.80;99.90
5415;DHT22;2730;51.512;7.504;2023-06-19T08:42:21;23.80;99.90
5415;DHT22;2730;51.512;7.504;2023-06-19T08:44:48;23.70;99.90
5415;DHT22;2730;51.512;7.504;2023-06-19T08:47:15;23.70;99.90
5415;DHT22;2730;51.512;7.504;2023-06-19T08:49:43;23.70;99.90
5415;DHT22;2730;51.512;7.504;2023-06-19T08:52:10;23.70;99.90
5415;DHT22;2730;51.512;7.504;2023-06-19T08:54:37;23.80;99.90
5415;DHT22;2730;51.512;7.504;2023-06-19T08:57:09;23.90;99.90
5415;DHT22;2730;51.512;7.504;2023-06-19T08:59:36;24.20;99.90
5415;DHT22;2730;51.512;7.504;2023-06-19T09:02:03;24.60;99.90
5415;DHT22;2730;51.512;7.504;2023-06-19T09:04:30;24.80;99.90
5415;DHT22;2730;51.512;7.504;2023-06-19T09:06:59;24.60;99.90
5415;DHT22;2730;51.512;7.504;2023-06-19T09:09:28;24.70;99.90
5415;DHT22;2730;51.512;7.504;2023-06-19T09:11:57;24.90;99.90
5415;DHT22;2730;51.512;7.504;2023-06-19T09:14:31;25.20;99.90
5415;DHT22;2730;51.512;7.504;2023-06-19T09:16:58;25.60;99.90
5415;DHT22;2730;51.512;7.504;2023-06-19T09:19:25;25.60;99.90
5415;DHT22;2730;51.512;7.504;2023-06-19T09:21:52;25.70;99.90
5415;DHT22;2730;51.512;7.504;2023-06-19T09:24:20;25.90;99.90
5415;DHT22;2730;51.512;7.504;2023-06-19T09:26:47;25.70;99.90
5415;DHT22;2730;51.512;7.504;2023-06-19T09:29:14;25.50;99.90
5415;DHT22;2730;51.512;7.504;2023-06-19T09:31:43;25.20;99.90
5415;DHT22;2730;51.512;7.504;2023-06-19T09:34:10;24.90;99.90
5415;DHT22;2730;51.512;7.504;2023-06-19T09:36:37;24.80;99.90
5415;DHT22;2730;51.512;7.504;2023-06-19T09:39:04;24.80;99.90
5415;DHT22;2730;51.512;7.504;2023-06-19T09:41:33;25.50;99.90
5415;DHT22;2730;51.512;7.504;2023-06-19T09:44:02;26.30;99.90
5415;DHT22;2730;51.512;7.504;2023-06-19T09:46:31;27.30;99.90
5415;DHT22;2730;51.512;7.504;2023-06-19T09:49:01;28.20;77.40
5415;DHT22;2730;51.512;7.504;2023-06-19T09:51:31;29.00;25.50
5415;DHT22;2730;51.512;7.504;2023-06-19T09:53:59;29.30;1.00
5415;DHT22;2730;51.512;7.504;2023-06-19T09:56:29;29.10;1.00
5415;DHT22;2730;51.512;7.504;2023-06-19T09:58:59;28.50;1.00
5415;DHT22;2730;51.512;7.504;2023-06-19T10:01:27;28.20;1.00
5415;DHT22;2730;51.512;7.504;2023-06-19T10:04:03;28.50;1.00
5415;DHT22;2730;51.512;7.504;2023-06-19T10:06:30;29.50;1.00
5415;DHT22;2730;51.512;7.504;2023-06-19T10:09:06;30.40;1.00
5415;DHT22;2730;51.512;7.504;2023-06-19T10:11:44;30.80;1.00
5415;DHT22;2730;51.512;7.504;2023-06-19T10:14:13;31.50;1.00
5415;DHT22;2730;51.512;7.504;2023-06-19T10:16:43;31.10;1.00
5415;DHT22;2730;51.512;7.504;2023-06-19T10:19:18;31.30;1.00
5415;DHT22;2730;51.512;7.504;2023-06-19T10:21:48;31.40;1.00
5415;DHT22;2730;51.512;7.504;2023-06-19T10:24:16;31.10;1.00
5415;DHT22;2730;51.512;7.504;2023-06-19T10:26:56;30.70;1.00
5415;DHT22;2730;51.512;7.504;2023-06-19T10:29:24;29.90;1.00
5415;DHT22;2730;51.512;7.504;2023-06-19T10:31:53;29.70;1.00
5415;DHT22;2730;51.512;7.504;2023-06-19T10:34:22;29.20;1.00
5415;DHT22;2730;51.512;7.504;2023-06-19T10:36:49;29.60;1.00
5415;DHT22;2730;51.512;7.504;2023-06-19T10:39:16;28.90;1.00
5415;DHT22;2730;51.512;7.504;2023-06-19T10:41:42;28.60;1.00
5415;DHT22;2730;51.512;7.504;2023-06-19T10:44:09;28.10;1.00
5415;DHT22;2730;51.512;7.504;2023-06-19T10:46:39;27.80;1.00
5415;DHT22;2730;51.512;7.504;2023-06-19T10:49:07;27.20;1.00
5415;DHT22;2730;51.512;7.504;2023-06-19T10:51:36;27.10;1.00
5415;DHT22;2730;51.512;7.504;2023-06-19T10:54:04;27.20;1.00
5415;DHT22;2730;51.512;7.504;2023-06-19T10:56:31;27.80;1.00
5415;DHT22;2730;51.512;7.504;2023-06-19T10:58:59;28.00;1.00
5415;DHT22;2730;51.512;7.504;2023-06-19T11:01:34;28.20;1.00
5415;DHT22;2730;51.512;7.504;2023-06-19T11:04:04;28.30;1.00
5415;DHT22;2730;51.512;7.504;2023-06-19T11:06:31;28.50;1.00
5415;DHT22;2730;51.512;7.504;2023-06-19T11:08:58;28.80;1.00
5415;DHT22;2730;51.512;7.504;2023-06-19T11:11:35;28.50;1.00
5415;DHT22;2730;51.512;7.504;2023-06-19T11:14:02;28.30;1.00
5415;DHT22;2730;51.512;7.504;2023-06-19T11:16:29;28.00;1.00
5415;DHT22;2730;51.512;7.504;2023-06-19T11:18:56;28.20;1.00
5415;DHT22;2730;51.512;7.504;2023-06-19T11:21:30;28.30;1.00
5415;DHT22;2730;51.512;7.504;2023-06-19T11:23:58;28.30;1.00
5415;DHT22;2730;51.512;7.504;2023-06-19T11:26:25;28.00;1.00
5415;DHT22;2730;51.512;7.504;2023-06-19T11:28:53;27.80;1.00
5415;DHT22;2730;51.512;7.504;2023-06-19T11:31:28;27.80;1.00
5415;DHT22;2730;51.512;7.504;2023-06-19T11:33:58;27.80;1.00
5415;DHT22;2730;51.512;7.504;2023-06-19T11:36:27;27.80;1.00
5415;DHT22;2730;51.512;7.504;2023-06-19T11:38:56;28.10;1.00
5415;DHT22;2730;51.512;7.504;2023-06-19T11:41:27;28.40;1.00
5415;DHT22;2730;51.512;7.504;2023-06-19T11:44:00;28.70;1.00
5415;DHT22;2730;51.512;7.504;2023-06-19T11:46:31;28.80;1.00
5415;DHT22;2730;51.512;7.504;2023-06-19T11:49:07;29.00;1.00
5415;DHT22;2730;51.512;7.504;2023-06-19T11:51:35;29.00;1.00
5415;DHT22;2730;51.512;7.504;2023-06-19T11:54:06;28.90;1.00
5415;DHT22;2730;51.512;7.504;2023-06-19T11:56:33;29.10;1.00
5415;DHT22;2730;51.512;7.504;2023-06-19T11:59:01;29.20;1.00
5415;DHT22;2730;51.512;7.504;2023-06-19T12:01:27;28.80;1.00
5415;DHT22;2730;51.512;7.504;2023-06-19T12:03:55;28.80;1.00
5415;DHT22;2730;51.512;7.504;2023-06-19T12:06:22;28.70;1.00
5415;DHT22;2730;51.512;7.504;2023-06-19T12:08:48;28.30;1.00
5415;DHT22;2730;51.512;7.504;2023-06-19T12:11:17;28.10;1.00
5415;DHT22;2730;51.512;7.504;2023-06-19T12:13:43;28.20;1.00
5415;DHT22;2730;51.512;7.504;2023-06-19T12:16:10;28.30;1.00
5415;DHT22;2730;51.512;7.504;2023-06-19T12:18:37;28.40;1.00
5415;DHT22;2730;51.512;7.504;2023-06-19T12:21:04;28.60;1.00
5415;DHT22;2730;51.512;7.504;2023-06-19T12:23:31;28.20;1.00
5415;DHT22;2730;51.512;7.504;2023-06-19T12:25:58;27.90;1.00
5415;DHT22;2730;51.512;7.504;2023-06-19T12:28:26;27.80;1.00
5415;DHT22;2730;51.512;7.504;2023-06-19T12:30:53;27.50;1.00
5415;DHT22;2730;51.512;7.504;2023-06-19T12:33:21;27.60;1.00
5415;DHT22;2730;51.512;7.504;2023-06-19T12:35:48;27.80;1.00
5415;DHT22;2730;51.512;7.504;2023-06-19T12:38:15;27.90;1.00
5415;DHT22;2730;51.512;7.504;2023-06-19T12:40:43;28.00;1.00
5415;DHT22;2730;51.512;7.504;2023-06-19T12:43:10;27.70;1.00
5415;DHT22;2730;51.512;7.504;2023-06-19T12:45:38;27.70;1.00
5415;DHT22;2730;51.512;7.504;2023-06-19T12:48:06;27.70;1.00
5415;DHT22;2730;51.512;7.504;2023-06-19T12:50:33;28.00;1.00
5415;DHT22;2730;51.512;7.504;2023-06-19T12:53:00;28.40;1.00
5415;DHT22;2730;51.512;7.504;2023-06-19T12:55:27;28.40;1.00
5415;DHT22;2730;51.512;7.504;2023-06-19T12:57:54;28.50;1.00
5415;DHT22;2730;51.512;7.504;2023-06-19T13:00:21;28.60;1.00
5415;DHT22;2730;51.512;7.504;2023-06-19T13:02:49;28.70;1.00
5415;DHT22;2730;51.512;7.504;2023-06-19T13:05:16;28.80;1.00
5415;DHT22;2730;51.512;7.504;2023-06-19T13:07:43;28.70;1.00
5415;DHT22;2730;51.512;7.504;2023-06-19T13:10:10;28.70;1.00
5415;DHT22;2730;51.512;7.504;2023-06-19T13:12:36;28.60;1.00
5415;DHT22;2730;51.512;7.504;2023-06-19T13:15:04;28.70;1.00
5415;DHT22;2730;51.512;7.504;2023-06-19T13:17:31;28.90;1.00
5415;DHT22;2730;51.512;7.504;2023-06-19T13:19:59;29.10;1.00
5415;DHT22;2730;51.512;7.504;2023-06-19T13:22:26;29.20;1.00
5415;DHT22;2730;51.512;7.504;2023-06-19T13:24:53;29.10;1.00
5415;DHT22;2730;51.512;7.504;2023-06-19T13:27:19;29.00;1.00
5415;DHT22;2730;51.512;7.504;2023-06-19T13:29:46;28.90;1.00
5415;DHT22;2730;51.512;7.504;2023-06-19T13:32:13;28.50;1.00
5415;DHT22;2730;51.512;7.504;2023-06-19T13:34:40;28.50;1.00
5415;DHT22;2730;51.512;7.504;2023-06-19T13:37:08;28.60;1.00
5415;DHT22;2730;51.512;7.504;2023-06-19T13:39:35;28.80;1.00
5415;DHT22;2730;51.512;7.504;2023-06-19T13:42:02;29.10;1.00
5415;DHT22;2730;51.512;7.504;2023-06-19T13:44:28;28.90;1.00
5415;DHT22;2730;51.512;7.504;2023-06-19T13:46:55;29.00;1.00
5415;DHT22;2730;51.512;7.504;2023-06-19T13:49:22;29.20;1.00
5415;DHT22;2730;51.512;7.504;2023-06-19T13:51:49;29.20;1.00
5415;DHT22;2730;51.512;7.504;2023-06-19T13:54:18;29.10;1.00
5415;DHT22;2730;51.512;7.504;2023-06-19T13:56:46;29.10;1.00
5415;DHT22;2730;51.512;7.504;2023-06-19T13:59:13;28.70;1.00
5415;DHT22;2730;51.512;7.504;2023-06-19T14:01:40;28.50;1.00
5415;DHT22;2730;51.512;7.504;2023-06-19T14:04:06;28.60;1.00
5415;DHT22;2730;51.512;7.504;2023-06-19T14:06:34;28.40;1.00
5415;DHT22;2730;51.512;7.504;2023-06-19T14:09:03;28.20;1.00
5415;DHT22;2730;51.512;7.504;2023-06-19T14:11:32;28.20;1.00
5415;DHT22;2730;51.512;7.504;2023-06-19T14:13:58;28.10;1.00
5415;DHT22;2730;51.512;7.504;2023-06-19T14:16:25;27.80;1.00
5415;DHT22;2730;51.512;7.504;2023-06-19T14:18:52;28.00;1.00
5415;DHT22;2730;51.512;7.504;2023-06-19T14:21:19;28.30;1.00
5415;DHT22;2730;51.512;7.504;2023-06-19T14:23:47;28.40;1.00
5415;DHT22;2730;51.512;7.504;2023-06-19T14:26:13;28.40;1.00
5415;DHT22;2730;51.512;7.504;2023-06-19T14:28:42;28.00;1.00
5415;DHT22;2730;51.512;7.504;2023-06-19T14:31:08;27.80;1.00
5415;DHT22;2730;51.512;7.504;2023-06-19T14:33:35;28.10;1.00
5415;DHT22;2730;51.512;7.504;2023-06-19T14:36:03;28.10;1.00
5415;DHT22;2730;51.512;7.504;2023-06-19T14:38:30;28.30;1.00
5415;DHT22;2730;51.512;7.504;2023-06-19T14:40:59;28.40;1.00
5415;DHT22;2730;51.512;7.504;2023-06-19T14:43:26;28.50;1.00
5415;DHT22;2730;51.512;7.504;2023-06-19T14:45:54;28.50;1.00
5415;DHT22;2730;51.512;7.504;2023-06-19T14:48:21;28.50;1.00
5415;DHT22;2730;51.512;7.504;2023-06-19T14:50:47;28.60;1.00
5415;DHT22;2730;51.512;7.504;2023-06-19T14:53:14;28.50;1.00
5415;DHT22;2730;51.512;7.504;2023-06-19T14:55:41;28.20;1.00
5415;DHT22;2730;51.512;7.504;2023-06-19T14:58:11;28.30;1.00
5415;DHT22;2730;51.512;7.504;2023-06-19T15:00:38;28.30;1.00
5415;DHT22;2730;51.512;7.504;2023-06-19T15:03:06;28.20;1.00
5415;DHT22;2730;51.512;7.504;2023-06-19T15:05:33;28.30;1.00
5415;DHT22;2730;51.512;7.504;2023-06-19T15:08:00;28.20;1.00
5415;DHT22;2730;51.512;7.504;2023-06-19T15:10:28;28.30;1.00
5415;DHT22;2730;51.512;7.504;2023-06-19T15:12:55;28.40;1.00
5415;DHT22;2730;51.512;7.504;2023-06-19T15:15:22;28.30;1.00
5415;DHT22;2730;51.512;7.504;2023-06-19T15:17:49;28.30;1.00
5415;DHT22;2730;51.512;7.504;2023-06-19T15:20:17;28.30;1.00
5415;DHT22;2730;51.512;7.504;2023-06-19T15:22:45;28.20;1.00
5415;DHT22;2730;51.512;7.504;2023-06-19T15:25:12;28.30;1.00
5415;DHT22;2730;51.512;7.504;2023-06-19T15:27:39;28.40;1.00
5415;DHT22;2730;51.512;7.504;2023-06-19T15:30:07;28.50;1.00
5415;DHT22;2730;51.512;7.504;2023-06-19T15:32:34;28.50;1.00
5415;DHT22;2730;51.512;7.504;2023-06-19T15:35:00;28.30;1.00
5415;DHT22;2730;51.512;7.504;2023-06-19T15:37:29;28.30;1.00
5415;DHT22;2730;51.512;7.504;2023-06-19T15:39:55;28.20;1.00
5415;DHT22;2730;51.512;7.504;2023-06-19T15:42:22;28.10;1.00
5415;DHT22;2730;51.512;7.504;2023-06-19T15:44:49;28.30;1.00
5415;DHT22;2730;51.512;7.504;2023-06-19T15:47:16;28.30;1.00
5415;DHT22;2730;51.512;7.504;2023-06-19T15:49:43;28.20;1.00
5415;DHT22;2730;51.512;7.504;2023-06-19T15:52:10;28.10;1.00
5415;DHT22;2730;51.512;7.504;2023-06-19T15:54:38;28.20;1.00
5415;DHT22;2730;51.512;7.504;2023-06-19T15:57:05;28.20;1.00
5415;DHT22;2730;51.512;7.504;2023-06-19T15:59:32;28.20;1.00
5415;DHT22;2730;51.512;7.504;2023-06-19T16:01:58;27.90;1.00
5415;DHT22;2730;51.512;7.504;2023-06-19T16:04:25;27.70;1.00
5415;DHT22;2730;51.512;7.504;2023-06-19T16:06:52;27.70;1.00
5415;DHT22;2730;51.512;7.504;2023-06-19T16:09:19;27.70;1.00
5415;DHT22;2730;51.512;7.504;2023-06-19T16:11:47;27.80;1.00
5415;DHT22;2730;51.512;7.504;2023-06-19T16:14:15;27.60;1.00